Time;durP1;ratioP1;P1;durP2;ratioP2;P2;SDS_P1;SDS_P2;PMS_P1;PMS_P2;Temp;Humidity;BMP_temperature;BMP_pressure;BME280_temperature;BME280_humidity;BME280_pressure;Samples;Min_cycle;Max_cycle;Signal;HPM_P1;HPM_P2
2022/12/16 00:00:21;;;;;;;0.40;0.20;;;20.30;64.70;;;;;;4956568;28;20039;-76
2022/12/16 00:02:47;;;;;;;3.03;0.20;;;20.30;64.60;;;;;;4955611;28;20131;-76
2022/12/16 00:05:13;;;;;;;0.40;0.20;;;20.40;64.90;;;;;;4973554;28;20478;-76
2022/12/16 00:07:38;;;;;;;4.60;0.25;;;20.30;64.60;;;;;;4925816;28;1366841;-76
2022/12/16 00:10:05;;;;;;;0.65;0.28;;;20.30;64.70;;;;;;4974030;28;20038;-76
2022/12/16 00:12:30;;;;;;;0.20;0.20;;;20.30;64.70;;;;;;4973919;28;20022;-76
2022/12/16 00:14:56;;;;;;;1.08;0.10;;;20.30;64.80;;;;;;4974015;28;20027;-76
2022/12/16 00:17:21;;;;;;;0.68;0.10;;;20.20;64.90;;;;;;4973962;28;20026;-75
2022/12/16 00:19:47;;;;;;;2.08;0.60;;;20.20;65.00;;;;;;4973926;28;20027;-75
2022/12/16 00:22:13;;;;;;;2.45;0.10;;;20.20;65.00;;;;;;4973787;28;20030;-75
2022/12/16 00:24:38;;;;;;;0.20;0.20;;;20.10;65.00;;;;;;4956648;28;20031;-75
2022/12/16 00:27:04;;;;;;;0.20;0.20;;;20.00;65.10;;;;;;4973800;28;20019;-75
2022/12/16 00:29:30;;;;;;;1.90;0.10;;;20.00;65.10;;;;;;4970486;28;20405;-75
2022/12/16 00:31:55;;;;;;;0.60;0.30;;;20.00;65.20;;;;;;4993217;28;20416;-75
2022/12/16 00:34:21;;;;;;;0.25;0.20;;;20.00;65.20;;;;;;4993141;28;20115;-76
2022/12/16 00:36:46;;;;;;;0.40;0.10;;;19.90;65.30;;;;;;4992609;28;20101;-75
2022/12/16 00:39:12;;;;;;;0.30;0.10;;;19.80;65.30;;;;;;4992927;28;20037;-76
2022/12/16 00:41:38;;;;;;;0.50;0.30;;;19.80;65.50;;;;;;4975778;28;20026;-76
2022/12/16 00:44:04;;;;;;;0.32;0.20;;;19.70;65.50;;;;;;4993055;28;20026;-76
2022/12/16 00:46:29;;;;;;;1.23;0.47;;;19.70;65.50;;;;;;4993204;28;20156;-76
2022/12/16 00:48:55;;;;;;;0.10;0.10;;;19.70;65.60;;;;;;4974801;28;20026;-76
2022/12/16 00:51:21;;;;;;;0.10;0.10;;;19.60;65.70;;;;;;4992785;28;20493;-76
2022/12/16 00:53:46;;;;;;;0.47;0.20;;;19.60;65.70;;;;;;4975617;28;20496;-75
2022/12/16 00:56:17;;;;;;;0.32;0.20;;;19.50;65.80;;;;;;4993000;28;20026;-76
2022/12/16 00:58:42;;;;;;;0.38;0.20;;;19.50;65.90;;;;;;4976088;28;20026;-76
2022/12/16 01:01:08;;;;;;;0.22;0.10;;;19.40;65.70;;;;;;4975602;28;20038;-76
2022/12/16 01:03:34;;;;;;;0.40;0.28;;;19.40;65.80;;;;;;4992922;28;20493;-76
2022/12/16 01:05:59;;;;;;;0.20;0.20;;;19.40;65.70;;;;;;4992620;28;20019;-75
2022/12/16 01:08:25;;;;;;;0.30;0.10;;;19.30;65.70;;;;;;4992729;28;20520;-76
2022/12/16 01:10:56;;;;;;;0.20;0.10;;;19.30;65.70;;;;;;4992746;28;20531;-75
2022/12/16 01:13:23;;;;;;;0.52;0.17;;;19.30;65.90;;;;;;4975525;28;20031;-75
2022/12/16 01:15:49;;;;;;;1.40;0.20;;;19.20;65.80;;;;;;4975648;28;20053;-75
2022/12/16 01:18:14;;;;;;;0.20;0.17;;;19.20;65.80;;;;;;4975513;28;20421;-75
2022/12/16 01:20:40;;;;;;;0.38;0.20;;;19.10;66.90;;;;;;4975478;28;20026;-76
2022/12/16 01:23:06;;;;;;;2.03;0.30;;;19.10;66.00;;;;;;4992733;28;20050;-76
2022/12/16 01:25:31;;;;;;;0.43;0.20;;;19.10;66.00;;;;;;4992591;28;20069;-75
2022/12/16 01:27:57;;;;;;;0.30;0.10;;;19.00;66.10;;;;;;4992691;28;20382;-75
2022/12/16 01:30:23;;;;;;;0.35;0.30;;;19.00;66.10;;;;;;4992724;28;20511;-76
2022/12/16 01:32:48;;;;;;;0.60;0.20;;;18.90;66.20;;;;;;4975249;28;20511;-75
2022/12/16 01:35:14;;;;;;;1.38;0.20;;;18.90;66.30;;;;;;4975190;28;20061;-76
2022/12/16 01:37:40;;;;;;;0.25;0.10;;;18.90;66.40;;;;;;4992300;28;20026;-76
2022/12/16 01:40:06;;;;;;;0.10;0.10;;;18.80;66.50;;;;;;4992455;28;20018;-75
2022/12/16 01:42:32;;;;;;;0.77;0.20;;;18.80;66.50;;;;;;4992863;28;20027;-75
2022/12/16 01:45:24;;;;;;;0.20;0.20;;;18.80;66.70;;;;;;4975132;28;20382;-75
2022/12/16 01:47:50;;;;;;;0.32;0.20;;;18.80;66.80;;;;;;4992122;28;20034;-75
2022/12/16 01:50:16;;;;;;;1.45;0.28;;;18.70;67.00;;;;;;4975226;28;20181;-75
2022/12/16 01:52:43;;;;;;;1.27;0.43;;;18.70;67.10;;;;;;4992426;28;20545;-75
2022/12/16 01:55:17;;;;;;;0.85;0.20;;;18.60;67.10;;;;;;4975091;28;20061;-75
2022/12/16 01:57:46;;;;;;;0.20;0.20;;;18.60;67.10;;;;;;4975157;28;20076;-75
2022/12/16 02:00:12;;;;;;;0.45;0.30;;;18.50;67.10;;;;;;4977291;28;20405;-75
2022/12/16 02:02:38;;;;;;;2.05;0.20;;;18.50;67.20;;;;;;4978396;28;20158;-76
2022/12/16 02:05:19;;;;;;;0.10;0.10;;;18.50;67.20;;;;;;4978555;28;20089;-75
2022/12/16 02:08:06;;;;;;;0.47;0.20;;;18.40;67.30;;;;;;4995656;28;20022;-75
2022/12/16 02:10:43;;;;;;;0.40;0.10;;;18.40;67.30;;;;;;4980508;28;20022;-75
2022/12/16 02:13:22;;;;;;;0.13;0.10;;;18.40;67.40;;;;;;4995493;28;20623;-75
2022/12/16 02:16:09;;;;;;;0.25;0.20;;;18.40;67.50;;;;;;4995812;28;20019;-75
2022/12/16 02:19:06;;;;;;;0.30;0.20;;;18.30;67.40;;;;;;4995426;28;20030;-75
2022/12/16 02:22:04;;;;;;;0.70;0.20;;;18.30;67.40;;;;;;4995518;28;20608;-75
2022/12/16 02:25:03;;;;;;;0.25;0.20;;;18.30;67.50;;;;;;4980725;28;20049;-75
2022/12/16 02:27:55;;;;;;;1.52;0.20;;;18.30;67.50;;;;;;4995389;28;20089;-75
2022/12/16 02:30:51;;;;;;;0.60;0.20;;;18.20;67.60;;;;;;4995086;28;20386;-75
2022/12/16 02:33:45;;;;;;;0.43;0.20;;;18.20;67.60;;;;;;4979971;28;20028;-75
2022/12/16 02:36:26;;;;;;;0.20;0.10;;;18.20;67.60;;;;;;4977808;28;20088;-75
2022/12/16 02:39:04;;;;;;;3.05;0.17;;;18.10;67.60;;;;;;4995076;28;20137;-75
2022/12/16 02:41:37;;;;;;;0.30;0.20;;;18.10;67.60;;;;;;4995200;28;20054;-75
2022/12/16 02:44:04;;;;;;;0.20;0.20;;;18.10;67.70;;;;;;4977599;28;20022;-75
2022/12/16 02:46:33;;;;;;;0.30;0.30;;;18.10;67.70;;;;;;4977637;28;20026;-76
2022/12/16 02:49:29;;;;;;;0.28;0.10;;;18.00;67.80;;;;;;4977871;28;20076;-75
2022/12/16 02:51:55;;;;;;;0.10;0.10;;;17.90;67.70;;;;;;4982275;28;20061;-75
2022/12/16 02:54:20;;;;;;;0.85;0.20;;;18.00;67.80;;;;;;4977742;28;20480;-75
2022/12/16 02:56:58;;;;;;;0.20;0.20;;;17.90;67.80;;;;;;4977632;28;20037;-75
2022/12/16 02:59:54;;;;;;;0.20;0.20;;;17.90;67.80;;;;;;4994744;28;20027;-75
2022/12/16 03:02:42;;;;;;;1.23;0.13;;;17.90;67.80;;;;;;4979986;28;20026;-76
2022/12/16 03:05:34;;;;;;;0.15;0.15;;;17.90;67.80;;;;;;4980076;28;20022;-75
2022/12/16 03:08:21;;;;;;;1.20;0.20;;;17.90;67.40;;;;;;4970350;28;20043;-75
2022/12/16 03:10:50;;;;;;;0.10;0.10;;;17.80;67.30;;;;;;4939402;29;20024;-75
2022/12/16 03:13:17;;;;;;;1.38;0.55;;;17.80;67.40;;;;;;4938940;29;20078;-75
2022/12/16 03:15:42;;;;;;;0.10;0.10;;;17.80;67.40;;;;;;4938718;29;20027;-76
2022/12/16 03:18:08;;;;;;;0.25;0.20;;;17.70;67.40;;;;;;4938508;29;20049;-75
2022/12/16 03:20:51;;;;;;;0.20;0.20;;;17.70;67.50;;;;;;4938666;29;20544;-75
2022/12/16 03:23:43;;;;;;;0.20;0.20;;;17.70;67.50;;;;;;4954733;29;20019;-75
2022/12/16 03:26:19;;;;;;;0.17;0.17;;;17.70;67.50;;;;;;4951524;28;20053;-75
2022/12/16 03:28:49;;;;;;;0.32;0.20;;;17.70;67.50;;;;;;4954331;28;20027;-75
2022/12/16 03:31:44;;;;;;;0.63;0.20;;;17.70;67.60;;;;;;4938537;29;20028;-75
2022/12/16 03:34:19;;;;;;;0.45;0.25;;;17.60;67.70;;;;;;4955522;29;20053;-75
2022/12/16 03:36:48;;;;;;;0.22;0.10;;;17.60;67.60;;;;;;4953923;29;20023;-75
2022/12/16 03:39:14;;;;;;;0.88;0.40;;;17.60;67.60;;;;;;4954142;29;20050;-75
2022/12/16 03:41:39;;;;;;;0.85;0.10;;;17.60;67.70;;;;;;4954176;29;20502;-75
2022/12/16 03:44:06;;;;;;;1.67;0.30;;;17.50;67.70;;;;;;4953906;29;20570;-75
2022/12/16 03:46:32;;;;;;;0.38;0.20;;;17.50;67.80;;;;;;4938227;29;20062;-75
2022/12/16 03:48:57;;;;;;;0.20;0.20;;;17.50;67.90;;;;;;4938145;29;20059;-75
2022/12/16 03:51:23;;;;;;;0.30;0.13;;;17.50;68.00;;;;;;4955262;29;20418;-75
2022/12/16 03:53:49;;;;;;;0.10;0.10;;;17.40;68.10;;;;;;4955247;29;20053;-75
2022/12/16 03:56:15;;;;;;;0.22;0.20;;;17.40;68.00;;;;;;4953825;29;20379;-75
2022/12/16 03:58:40;;;;;;;0.43;0.13;;;17.40;68.30;;;;;;4954643;29;20703;-75
2022/12/16 04:01:08;;;;;;;0.25;0.20;;;17.40;68.20;;;;;;4954939;29;20106;-75
2022/12/16 04:03:34;;;;;;;0.30;0.10;;;17.40;68.20;;;;;;4938011;29;20023;-75
2022/12/16 04:06:00;;;;;;;0.73;0.20;;;17.40;68.30;;;;;;4954869;28;20118;-75
2022/12/16 04:08:25;;;;;;;1.10;0.20;;;17.30;69.40;;;;;;4968313;28;20592;-75
2022/12/16 04:24:32;;;;;;;4.18;0.30;;;17.20;69.70;;;;;;4978635;28;20400;-75
2022/12/16 04:34:24;;;;;;;1.17;0.20;;;17.20;68.70;;;;;;4993290;28;20037;-75
